createdAt,value
2023-05-16T00:01:34.347Z,0
2023-05-16T00:06:38.463Z,0
2023-05-16T00:11:42.628Z,0
2023-05-16T00:16:46.804Z,0
2023-05-16T00:21:50.936Z,0
2023-05-16T00:26:55.094Z,0
2023-05-16T00:31:59.332Z,0
2023-05-16T00:37:03.413Z,0
2023-05-16T00:42:07.563Z,0
2023-05-16T00:47:11.770Z,0
2023-05-16T00:52:15.935Z,0
2023-05-16T01:02:24.270Z,0
2023-05-16T01:07:28.390Z,0
2023-05-16T01:12:32.560Z,0
2023-05-16T01:17:36.774Z,0
2023-05-16T01:22:40.893Z,0
2023-05-16T01:27:45.017Z,0
2023-05-16T01:32:49.287Z,0
2023-05-16T01:37:51.455Z,0
2023-05-16T01:42:55.601Z,0
2023-05-16T01:47:59.863Z,0
2023-05-16T01:53:03.974Z,0
2023-05-16T01:58:08.095Z,0
2023-05-16T02:03:12.464Z,0
2023-05-16T02:08:16.422Z,0
2023-05-16T02:13:20.587Z,0
2023-05-16T02:18:24.758Z,0
2023-05-16T02:23:28.895Z,0
2023-05-16T02:28:33.089Z,0
2023-05-16T02:33:37.219Z,0
2023-05-16T02:38:41.410Z,0
2023-05-16T02:43:47.027Z,0
2023-05-16T02:48:49.741Z,0
2023-05-16T02:53:53.898Z,0
2023-05-16T02:58:58.021Z,0
2023-05-16T03:04:02.293Z,0
2023-05-16T03:09:06.340Z,0
2023-05-16T03:14:10.532Z,0
2023-05-16T03:19:14.738Z,2
2023-05-16T03:24:18.864Z,5
2023-05-16T03:29:23.028Z,9
2023-05-16T03:34:27.200Z,15
2023-05-16T03:39:31.325Z,25
2023-05-16T03:44:35.518Z,62
2023-05-16T03:49:39.708Z,92
2023-05-16T03:54:43.863Z,113
2023-05-16T03:59:47.968Z,126
2023-05-16T04:04:52.150Z,205
2023-05-16T04:09:56.339Z,353
2023-05-16T04:15:00.492Z,656
2023-05-16T04:20:04.772Z,968
2023-05-16T04:25:08.825Z,1106
2023-05-16T04:30:12.944Z,1217
2023-05-16T04:35:17.145Z,1254
2023-05-16T04:40:21.266Z,1290
2023-05-16T04:45:25.626Z,1482
2023-05-16T04:50:29.604Z,1783
2023-05-16T04:55:33.836Z,1933
2023-05-16T05:00:37.934Z,2307
2023-05-16T05:05:42.128Z,2565
2023-05-16T05:10:46.284Z,2680
2023-05-16T05:15:50.421Z,2735
2023-05-16T05:20:54.571Z,2713
2023-05-16T05:25:58.738Z,2903
2023-05-16T05:31:02.884Z,2850
2023-05-16T05:36:07.046Z,2794
2023-05-16T05:41:11.244Z,2623
2023-05-16T05:51:19.531Z,4420
2023-05-16T05:56:23.714Z,3452
2023-05-16T06:01:27.878Z,5432
2023-05-16T06:06:31.993Z,4001
2023-05-16T06:11:36.227Z,5252
2023-05-16T06:16:40.485Z,4301
2023-05-16T06:21:44.553Z,5210
2023-05-16T06:26:48.697Z,5107
2023-05-16T06:31:52.917Z,6394
2023-05-16T06:36:57.002Z,8095
2023-05-16T06:42:01.136Z,5740
2023-05-16T06:47:05.504Z,5080
2023-05-16T06:52:09.497Z,3730
2023-05-16T06:57:13.625Z,6495
2023-05-16T07:02:17.849Z,6870
2023-05-16T07:07:20.083Z,6170
2023-05-16T07:12:24.239Z,7111
2023-05-16T07:17:28.407Z,6852
2023-05-16T07:22:32.546Z,4614
2023-05-16T07:27:36.739Z,6353
2023-05-16T07:32:40.930Z,6248
2023-05-16T07:37:45.048Z,5112
2023-05-16T07:42:49.185Z,6883
2023-05-16T07:47:53.455Z,5091
2023-05-16T07:52:57.496Z,9060
2023-05-16T07:58:01.674Z,4142
2023-05-16T08:03:05.935Z,4693
2023-05-16T08:08:10.032Z,3611
2023-05-16T08:13:14.160Z,4965
2023-05-16T08:18:20.693Z,6672
2023-05-16T08:23:22.460Z,6637
2023-05-16T08:28:26.716Z,5659
2023-05-16T08:33:30.790Z,6516
2023-05-16T08:38:34.969Z,8027
2023-05-16T08:43:39.154Z,5534
2023-05-16T08:48:43.314Z,5575
2023-05-16T08:53:47.457Z,8064
2023-05-16T08:58:51.609Z,10180
2023-05-16T09:03:55.793Z,6888
2023-05-16T09:08:59.948Z,3992
2023-05-16T09:14:04.091Z,5248
2023-05-16T09:19:08.334Z,6355
2023-05-16T09:24:12.445Z,6220
2023-05-16T09:29:16.585Z,6444
2023-05-16T09:34:20.753Z,6530
2023-05-16T09:39:24.929Z,8569
2023-05-16T09:44:29.107Z,9210
2023-05-16T09:49:33.482Z,8910
2023-05-16T09:54:37.386Z,7605
2023-05-16T09:59:41.575Z,8242
2023-05-16T10:04:45.707Z,10010
2023-05-16T10:09:49.867Z,8451
2023-05-16T10:14:53.999Z,11680
2023-05-16T10:19:58.160Z,11754
2023-05-16T10:25:02.327Z,8075
2023-05-16T10:30:06.515Z,10474
2023-05-16T10:35:10.719Z,11781
2023-05-16T10:40:14.798Z,8265
2023-05-16T10:45:18.981Z,11223
2023-05-16T10:50:23.133Z,14251
2023-05-16T10:55:27.523Z,7444
2023-05-16T11:00:31.453Z,7721
2023-05-16T11:05:35.622Z,7712
2023-05-16T11:10:39.764Z,5540
2023-05-16T11:15:43.928Z,4826
2023-05-16T11:20:48.100Z,9844
2023-05-16T11:25:52.294Z,12068
2023-05-16T11:30:56.436Z,8236
2023-05-16T11:36:11.481Z,6449
2023-05-16T11:41:04.760Z,11915
2023-05-16T11:46:08.952Z,12522
2023-05-16T11:51:13.103Z,6106
2023-05-16T11:56:17.194Z,4119
2023-05-16T12:01:21.348Z,3444
2023-05-16T12:06:25.551Z,3908
2023-05-16T12:11:29.702Z,5850
2023-05-16T12:16:33.953Z,4306
2023-05-16T12:21:38.020Z,4116
2023-05-16T12:26:42.223Z,4248
2023-05-16T12:31:46.379Z,7021
2023-05-16T12:36:48.616Z,10460
2023-05-16T12:41:52.761Z,3785
2023-05-16T12:46:56.960Z,4929
2023-05-16T12:52:01.107Z,9917
2023-05-16T12:57:05.268Z,11885
2023-05-16T13:02:09.508Z,9820
2023-05-16T13:07:11.684Z,8535
2023-05-16T13:12:15.858Z,10021
2023-05-16T13:17:19.997Z,5269
2023-05-16T13:22:24.170Z,4154
2023-05-16T13:27:28.338Z,5455
2023-05-16T13:32:32.513Z,5562
2023-05-16T13:37:36.613Z,7465
2023-05-16T13:42:40.778Z,9213
2023-05-16T13:47:46.740Z,8701
2023-05-16T13:52:49.112Z,6411
2023-05-16T13:57:53.303Z,5735
2023-05-16T14:02:57.463Z,7173
2023-05-16T14:08:01.584Z,7510
2023-05-16T14:13:05.733Z,15447
2023-05-16T14:18:09.926Z,10756
2023-05-16T14:23:14.068Z,12470
2023-05-16T14:28:18.217Z,36423
2023-05-16T14:33:22.424Z,7503
2023-05-16T14:38:26.585Z,17733
2023-05-16T14:43:30.709Z,17885
2023-05-16T14:48:34.851Z,4568
2023-05-16T14:53:39.000Z,3316
2023-05-16T14:58:43.222Z,4819
2023-05-16T15:03:55.564Z,9179
2023-05-16T15:08:51.552Z,7201
2023-05-16T15:13:55.684Z,6581
2023-05-16T15:18:59.934Z,6157
2023-05-16T15:24:04.092Z,5868
2023-05-16T15:29:08.168Z,7050
2023-05-16T15:34:12.333Z,8058
2023-05-16T15:39:16.639Z,6157
2023-05-16T15:44:20.675Z,7315
2023-05-16T15:49:24.765Z,7638
2023-05-16T15:54:29.747Z,5060
2023-05-16T15:59:33.110Z,3590
2023-05-16T16:04:37.270Z,4388
2023-05-16T16:09:41.428Z,7254
2023-05-16T16:14:45.583Z,9005
2023-05-16T16:19:49.739Z,7620
2023-05-16T16:24:53.920Z,8934
2023-05-16T16:29:58.101Z,9732
2023-05-16T16:35:02.243Z,7880
2023-05-16T16:40:06.357Z,7426
2023-05-16T16:45:10.575Z,7985
2023-05-16T16:50:14.689Z,5314
2023-05-16T16:55:18.866Z,2355
2023-05-16T17:00:23.028Z,2460
2023-05-16T17:05:27.474Z,3416
2023-05-16T17:10:31.340Z,3137
2023-05-16T17:15:35.527Z,2939
2023-05-16T17:20:39.648Z,2709
2023-05-16T17:25:43.834Z,2485
2023-05-16T17:30:47.991Z,2209
2023-05-16T17:35:52.136Z,1536
2023-05-16T17:40:56.313Z,1013
2023-05-16T17:46:00.518Z,931
2023-05-16T17:51:04.622Z,730
2023-05-16T17:56:08.782Z,632
2023-05-16T18:01:12.981Z,623
2023-05-16T18:06:17.247Z,580
2023-05-16T18:11:21.281Z,700
2023-05-16T18:16:25.445Z,736
2023-05-16T18:21:29.588Z,636
2023-05-16T18:26:33.809Z,562
2023-05-16T18:31:37.913Z,462
2023-05-16T18:36:40.157Z,385
2023-05-16T18:46:48.517Z,309
2023-05-16T18:51:52.669Z,210
2023-05-16T18:56:56.868Z,155
2023-05-16T19:02:01.028Z,130
2023-05-16T19:07:06.657Z,134
2023-05-16T19:12:09.325Z,130
2023-05-16T19:17:13.504Z,118
2023-05-16T19:22:17.653Z,73
2023-05-16T19:27:21.820Z,42
2023-05-16T19:32:26.047Z,24
2023-05-16T19:37:30.108Z,11
2023-05-16T19:42:34.285Z,5
2023-05-16T19:47:38.609Z,2
2023-05-16T19:52:42.641Z,0
2023-05-16T19:57:46.814Z,0
2023-05-16T20:02:51.048Z,0
2023-05-16T20:07:55.071Z,0
2023-05-16T20:12:59.268Z,0
2023-05-16T20:18:03.541Z,0
2023-05-16T20:23:07.610Z,0
2023-05-16T20:28:11.787Z,0
2023-05-16T20:33:15.939Z,0
2023-05-16T20:38:20.097Z,0
2023-05-16T20:48:28.456Z,0
2023-05-16T20:53:32.577Z,0
2023-05-16T20:58:36.765Z,0
2023-05-16T21:03:40.874Z,0
2023-05-16T21:08:45.036Z,0
2023-05-16T21:13:49.182Z,0
2023-05-16T21:18:53.528Z,0
2023-05-16T21:23:57.505Z,0
2023-05-16T21:29:01.658Z,0
2023-05-16T21:34:05.920Z,0
2023-05-16T21:39:09.969Z,0
2023-05-16T21:44:14.133Z,0
2023-05-16T21:49:18.319Z,0
2023-05-16T21:54:22.419Z,0
2023-05-16T21:59:26.625Z,0
2023-05-16T22:04:30.870Z,0
2023-05-16T22:09:34.935Z,0
2023-05-16T22:14:39.107Z,0
2023-05-16T22:19:43.362Z,0
2023-05-16T22:24:47.434Z,0
2023-05-16T22:29:51.577Z,0
2023-05-16T22:34:55.759Z,0
2023-05-16T22:40:00.007Z,0
2023-05-16T22:45:04.087Z,0
2023-05-16T22:50:08.242Z,0
2023-05-16T22:55:12.397Z,0
2023-05-16T23:00:16.534Z,0
2023-05-16T23:05:20.730Z,0
2023-05-16T23:10:24.845Z,0
2023-05-16T23:15:29.265Z,0
2023-05-16T23:20:33.222Z,0
2023-05-16T23:25:37.369Z,0
2023-05-16T23:30:41.562Z,0
2023-05-16T23:35:45.706Z,0
2023-05-16T23:40:49.836Z,0
2023-05-16T23:45:54.018Z,0
2023-05-16T23:50:58.170Z,0
2023-05-16T23:56:02.325Z,0
